sensor_id;sensor_type;location;lat;lon;timestamp;P1;durP1;ratioP1;P2;durP2;ratioP2
15679;SDS011;15488;48.114;11.532;2023-06-26T00:00:35;6.50;;;5.77;;
15679;SDS011;15488;48.114;11.532;2023-06-26T00:03:03;6.83;;;6.13;;
15679;SDS011;15488;48.114;11.532;2023-06-26T00:05:30;8.67;;;6.37;;
15679;SDS011;15488;48.114;11.532;2023-06-26T00:07:58;6.27;;;5.67;;
15679;SDS011;15488;48.114;11.532;2023-06-26T00:10:25;6.37;;;5.70;;
15679;SDS011;15488;48.114;11.532;2023-06-26T00:12:54;6.30;;;5.70;;
15679;SDS011;15488;48.114;11.532;2023-06-26T00:15:22;6.93;;;5.97;;
15679;SDS011;15488;48.114;11.532;2023-06-26T00:17:49;6.20;;;5.60;;
15679;SDS011;15488;48.114;11.532;2023-06-26T00:20:16;6.50;;;5.53;;
15679;SDS011;15488;48.114;11.532;2023-06-26T00:22:44;6.23;;;5.50;;
15679;SDS011;15488;48.114;11.532;2023-06-26T00:25:11;6.67;;;5.90;;
15679;SDS011;15488;48.114;11.532;2023-06-26T00:27:39;6.30;;;5.70;;
15679;SDS011;15488;48.114;11.532;2023-06-26T00:30:08;6.00;;;5.40;;
15679;SDS011;15488;48.114;11.532;2023-06-26T00:32:36;6.17;;;5.53;;
15679;SDS011;15488;48.114;11.532;2023-06-26T00:35:04;6.73;;;6.03;;
15679;SDS011;15488;48.114;11.532;2023-06-26T00:37:31;7.80;;;6.37;;
15679;SDS011;15488;48.114;11.532;2023-06-26T00:39:59;11.80;;;7.30;;
15679;SDS011;15488;48.114;11.532;2023-06-26T00:42:26;11.10;;;6.90;;
15679;SDS011;15488;48.114;11.532;2023-06-26T00:44:54;9.50;;;7.20;;
15679;SDS011;15488;48.114;11.532;2023-06-26T00:47:22;11.90;;;8.00;;
15679;SDS011;15488;48.114;11.532;2023-06-26T00:49:51;11.30;;;7.73;;
15679;SDS011;15488;48.114;11.532;2023-06-26T00:52:19;10.53;;;7.50;;
15679;SDS011;15488;48.114;11.532;2023-06-26T00:54:46;11.27;;;7.97;;
15679;SDS011;15488;48.114;11.532;2023-06-26T00:57:16;8.93;;;6.60;;
15679;SDS011;15488;48.114;11.532;2023-06-26T00:59:44;8.97;;;6.77;;
15679;SDS011;15488;48.114;11.532;2023-06-26T01:02:11;7.60;;;6.40;;
15679;SDS011;15488;48.114;11.532;2023-06-26T01:04:46;7.67;;;6.40;;
15679;SDS011;15488;48.114;11.532;2023-06-26T01:07:14;7.07;;;6.13;;
15679;SDS011;15488;48.114;11.532;2023-06-26T01:09:44;6.93;;;5.93;;
15679;SDS011;15488;48.114;11.532;2023-06-26T01:12:12;7.13;;;5.80;;
15679;SDS011;15488;48.114;11.532;2023-06-26T01:14:39;8.43;;;5.97;;
15679;SDS011;15488;48.114;11.532;2023-06-26T01:17:07;8.03;;;6.00;;
15679;SDS011;15488;48.114;11.532;2023-06-26T01:19:37;7.30;;;6.23;;
15679;SDS011;15488;48.114;11.532;2023-06-26T01:22:09;6.83;;;6.13;;
15679;SDS011;15488;48.114;11.532;2023-06-26T01:25:01;8.10;;;6.17;;
15679;SDS011;15488;48.114;11.532;2023-06-26T01:27:44;7.87;;;6.23;;
15679;SDS011;15488;48.114;11.532;2023-06-26T01:30:14;9.40;;;6.67;;
15679;SDS011;15488;48.114;11.532;2023-06-26T01:32:43;8.97;;;6.43;;
15679;SDS011;15488;48.114;11.532;2023-06-26T01:35:11;6.77;;;6.03;;
15679;SDS011;15488;48.114;11.532;2023-06-26T01:37:39;6.90;;;5.67;;
15679;SDS011;15488;48.114;11.532;2023-06-26T01:40:07;7.53;;;6.33;;
15679;SDS011;15488;48.114;11.532;2023-06-26T01:42:35;7.17;;;6.07;;
15679;SDS011;15488;48.114;11.532;2023-06-26T01:45:05;7.37;;;6.03;;
15679;SDS011;15488;48.114;11.532;2023-06-26T01:47:39;8.60;;;7.47;;
15679;SDS011;15488;48.114;11.532;2023-06-26T01:50:11;7.23;;;6.40;;
15679;SDS011;15488;48.114;11.532;2023-06-26T01:52:41;8.73;;;6.90;;
15679;SDS011;15488;48.114;11.532;2023-06-26T01:55:14;8.13;;;6.43;;
15679;SDS011;15488;48.114;11.532;2023-06-26T01:57:45;7.63;;;6.63;;
15679;SDS011;15488;48.114;11.532;2023-06-26T02:00:15;8.10;;;6.27;;
15679;SDS011;15488;48.114;11.532;2023-06-26T02:02:45;7.20;;;5.97;;
15679;SDS011;15488;48.114;11.532;2023-06-26T02:05:13;7.47;;;6.40;;
15679;SDS011;15488;48.114;11.532;2023-06-26T02:07:40;6.93;;;6.20;;
15679;SDS011;15488;48.114;11.532;2023-06-26T02:10:09;6.87;;;6.00;;
15679;SDS011;15488;48.114;11.532;2023-06-26T02:12:37;7.50;;;6.37;;
15679;SDS011;15488;48.114;11.532;2023-06-26T02:15:05;6.47;;;5.83;;
15679;SDS011;15488;48.114;11.532;2023-06-26T02:17:35;7.83;;;6.07;;
15679;SDS011;15488;48.114;11.532;2023-06-26T02:20:02;6.60;;;5.90;;
15679;SDS011;15488;48.114;11.532;2023-06-26T02:22:30;7.77;;;5.83;;
15679;SDS011;15488;48.114;11.532;2023-06-26T02:24:57;6.67;;;5.97;;
15679;SDS011;15488;48.114;11.532;2023-06-26T02:27:25;7.73;;;5.77;;
15679;SDS011;15488;48.114;11.532;2023-06-26T02:29:52;7.40;;;6.00;;
15679;SDS011;15488;48.114;11.532;2023-06-26T02:32:20;6.20;;;5.50;;
15679;SDS011;15488;48.114;11.532;2023-06-26T02:34:49;7.47;;;6.27;;
15679;SDS011;15488;48.114;11.532;2023-06-26T02:37:16;7.07;;;6.10;;
15679;SDS011;15488;48.114;11.532;2023-06-26T02:39:44;7.27;;;6.00;;
15679;SDS011;15488;48.114;11.532;2023-06-26T02:42:11;6.43;;;5.63;;
15679;SDS011;15488;48.114;11.532;2023-06-26T02:44:39;8.20;;;6.50;;
15679;SDS011;15488;48.114;11.532;2023-06-26T02:47:06;8.77;;;6.63;;
15679;SDS011;15488;48.114;11.532;2023-06-26T02:49:34;8.17;;;6.57;;
15679;SDS011;15488;48.114;11.532;2023-06-26T02:52:03;7.83;;;6.30;;
15679;SDS011;15488;48.114;11.532;2023-06-26T02:54:30;7.73;;;6.27;;
15679;SDS011;15488;48.114;11.532;2023-06-26T02:56:58;6.90;;;6.10;;
15679;SDS011;15488;48.114;11.532;2023-06-26T02:59:25;7.93;;;6.57;;
15679;SDS011;15488;48.114;11.532;2023-06-26T03:01:53;9.10;;;5.97;;
15679;SDS011;15488;48.114;11.532;2023-06-26T03:04:20;7.00;;;6.10;;
15679;SDS011;15488;48.114;11.532;2023-06-26T03:06:48;7.33;;;6.10;;
15679;SDS011;15488;48.114;11.532;2023-06-26T03:09:16;6.80;;;6.07;;
15679;SDS011;15488;48.114;11.532;2023-06-26T03:11:44;6.77;;;5.90;;
15679;SDS011;15488;48.114;11.532;2023-06-26T03:14:11;8.20;;;6.73;;
15679;SDS011;15488;48.114;11.532;2023-06-26T03:16:39;6.77;;;5.87;;
15679;SDS011;15488;48.114;11.532;2023-06-26T03:19:06;9.13;;;5.67;;
15679;SDS011;15488;48.114;11.532;2023-06-26T03:21:34;7.50;;;5.80;;
15679;SDS011;15488;48.114;11.532;2023-06-26T03:24:01;6.73;;;5.97;;
15679;SDS011;15488;48.114;11.532;2023-06-26T03:26:33;7.90;;;6.23;;
15679;SDS011;15488;48.114;11.532;2023-06-26T03:29:01;8.00;;;6.73;;
15679;SDS011;15488;48.114;11.532;2023-06-26T03:31:28;7.67;;;6.40;;
15679;SDS011;15488;48.114;11.532;2023-06-26T03:33:55;8.73;;;6.70;;
15679;SDS011;15488;48.114;11.532;2023-06-26T03:36:23;9.30;;;6.83;;
15679;SDS011;15488;48.114;11.532;2023-06-26T03:38:50;8.20;;;6.30;;
15679;SDS011;15488;48.114;11.532;2023-06-26T03:41:21;8.27;;;6.20;;
15679;SDS011;15488;48.114;11.532;2023-06-26T03:43:50;7.43;;;6.37;;
15679;SDS011;15488;48.114;11.532;2023-06-26T03:46:18;8.07;;;6.60;;
15679;SDS011;15488;48.114;11.532;2023-06-26T03:48:45;8.10;;;6.33;;
15679;SDS011;15488;48.114;11.532;2023-06-26T03:51:13;7.20;;;6.40;;
15679;SDS011;15488;48.114;11.532;2023-06-26T03:53:41;10.27;;;7.07;;
15679;SDS011;15488;48.114;11.532;2023-06-26T03:56:08;8.00;;;6.40;;
15679;SDS011;15488;48.114;11.532;2023-06-26T03:58:36;7.67;;;6.33;;
15679;SDS011;15488;48.114;11.532;2023-06-26T04:01:04;7.93;;;6.00;;
15679;SDS011;15488;48.114;11.532;2023-06-26T04:03:32;7.60;;;6.53;;
15679;SDS011;15488;48.114;11.532;2023-06-26T04:05:59;7.40;;;6.10;;
15679;SDS011;15488;48.114;11.532;2023-06-26T04:08:27;7.43;;;6.23;;
15679;SDS011;15488;48.114;11.532;2023-06-26T04:10:54;9.47;;;6.57;;
15679;SDS011;15488;48.114;11.532;2023-06-26T04:13:23;9.00;;;7.00;;
15679;SDS011;15488;48.114;11.532;2023-06-26T04:15:51;8.73;;;7.00;;
15679;SDS011;15488;48.114;11.532;2023-06-26T04:18:19;9.20;;;6.60;;
15679;SDS011;15488;48.114;11.532;2023-06-26T04:23:30;8.90;;;6.70;;
15679;SDS011;15488;48.114;11.532;2023-06-26T04:25:58;8.33;;;6.80;;
15679;SDS011;15488;48.114;11.532;2023-06-26T04:28:25;9.63;;;6.80;;
15679;SDS011;15488;48.114;11.532;2023-06-26T04:30:53;9.07;;;6.67;;
15679;SDS011;15488;48.114;11.532;2023-06-26T04:33:22;7.73;;;6.13;;
15679;SDS011;15488;48.114;11.532;2023-06-26T04:35:50;7.20;;;6.00;;
15679;SDS011;15488;48.114;11.532;2023-06-26T04:38:18;8.27;;;6.13;;
15679;SDS011;15488;48.114;11.532;2023-06-26T04:40:46;8.07;;;5.97;;
15679;SDS011;15488;48.114;11.532;2023-06-26T04:43:14;7.73;;;5.80;;
15679;SDS011;15488;48.114;11.532;2023-06-26T04:45:41;7.80;;;6.30;;
15679;SDS011;15488;48.114;11.532;2023-06-26T04:48:09;7.63;;;6.00;;
15679;SDS011;15488;48.114;11.532;2023-06-26T04:50:38;7.17;;;6.00;;
15679;SDS011;15488;48.114;11.532;2023-06-26T04:53:06;7.07;;;5.63;;
15679;SDS011;15488;48.114;11.532;2023-06-26T04:55:33;7.60;;;5.90;;
15679;SDS011;15488;48.114;11.532;2023-06-26T04:58:01;7.27;;;6.17;;
15679;SDS011;15488;48.114;11.532;2023-06-26T05:00:28;6.93;;;6.07;;
15679;SDS011;15488;48.114;11.532;2023-06-26T05:02:56;7.63;;;6.77;;
15679;SDS011;15488;48.114;11.532;2023-06-26T05:05:25;7.97;;;6.40;;
15679;SDS011;15488;48.114;11.532;2023-06-26T05:07:55;8.00;;;6.40;;
15679;SDS011;15488;48.114;11.532;2023-06-26T05:10:22;7.50;;;6.37;;
15679;SDS011;15488;48.114;11.532;2023-06-26T05:12:50;7.30;;;6.50;;
15679;SDS011;15488;48.114;11.532;2023-06-26T05:15:17;8.53;;;6.40;;
15679;SDS011;15488;48.114;11.532;2023-06-26T05:17:45;8.43;;;6.63;;
15679;SDS011;15488;48.114;11.532;2023-06-26T05:20:12;7.40;;;6.30;;
15679;SDS011;15488;48.114;11.532;2023-06-26T05:22:40;8.20;;;7.03;;
15679;SDS011;15488;48.114;11.532;2023-06-26T05:25:09;8.13;;;6.50;;
15679;SDS011;15488;48.114;11.532;2023-06-26T05:27:37;7.77;;;5.97;;
15679;SDS011;15488;48.114;11.532;2023-06-26T05:30:05;9.03;;;6.53;;
15679;SDS011;15488;48.114;11.532;2023-06-26T05:32:34;7.43;;;6.47;;
15679;SDS011;15488;48.114;11.532;2023-06-26T05:35:03;7.53;;;6.57;;
15679;SDS011;15488;48.114;11.532;2023-06-26T05:37:33;7.90;;;6.43;;
15679;SDS011;15488;48.114;11.532;2023-06-26T05:40:01;8.60;;;6.47;;
15679;SDS011;15488;48.114;11.532;2023-06-26T05:42:31;8.23;;;6.77;;
15679;SDS011;15488;48.114;11.532;2023-06-26T05:45:00;8.60;;;6.47;;
15679;SDS011;15488;48.114;11.532;2023-06-26T05:47:27;7.10;;;6.33;;
15679;SDS011;15488;48.114;11.532;2023-06-26T05:49:55;6.83;;;5.97;;
15679;SDS011;15488;48.114;11.532;2023-06-26T05:52:23;7.30;;;6.00;;
15679;SDS011;15488;48.114;11.532;2023-06-26T05:54:51;6.50;;;5.80;;
15679;SDS011;15488;48.114;11.532;2023-06-26T05:57:19;6.67;;;5.83;;
15679;SDS011;15488;48.114;11.532;2023-06-26T05:59:49;6.30;;;5.70;;
15679;SDS011;15488;48.114;11.532;2023-06-26T06:02:17;7.47;;;5.70;;
15679;SDS011;15488;48.114;11.532;2023-06-26T06:04:44;7.27;;;6.27;;
15679;SDS011;15488;48.114;11.532;2023-06-26T06:07:12;6.43;;;5.83;;
15679;SDS011;15488;48.114;11.532;2023-06-26T06:09:39;6.90;;;5.87;;
15679;SDS011;15488;48.114;11.532;2023-06-26T06:12:07;7.63;;;5.90;;
15679;SDS011;15488;48.114;11.532;2023-06-26T06:14:35;6.47;;;5.77;;
15679;SDS011;15488;48.114;11.532;2023-06-26T06:17:04;6.43;;;5.40;;
15679;SDS011;15488;48.114;11.532;2023-06-26T06:19:31;7.00;;;6.03;;
15679;SDS011;15488;48.114;11.532;2023-06-26T06:21:59;7.03;;;5.80;;
15679;SDS011;15488;48.114;11.532;2023-06-26T06:24:26;7.30;;;5.87;;
15679;SDS011;15488;48.114;11.532;2023-06-26T06:26:53;6.97;;;5.63;;
15679;SDS011;15488;48.114;11.532;2023-06-26T06:29:21;5.83;;;5.23;;
15679;SDS011;15488;48.114;11.532;2023-06-26T06:31:48;6.43;;;5.30;;
15679;SDS011;15488;48.114;11.532;2023-06-26T06:34:17;7.17;;;5.80;;
15679;SDS011;15488;48.114;11.532;2023-06-26T06:36:45;6.30;;;5.50;;
15679;SDS011;15488;48.114;11.532;2023-06-26T06:39:12;10.93;;;6.57;;
15679;SDS011;15488;48.114;11.532;2023-06-26T06:41:40;9.07;;;6.50;;
15679;SDS011;15488;48.114;11.532;2023-06-26T06:44:07;6.17;;;5.47;;
15679;SDS011;15488;48.114;11.532;2023-06-26T06:46:35;6.20;;;5.53;;
15679;SDS011;15488;48.114;11.532;2023-06-26T06:49:02;5.87;;;5.27;;
15679;SDS011;15488;48.114;11.532;2023-06-26T06:51:31;5.90;;;5.30;;
15679;SDS011;15488;48.114;11.532;2023-06-26T06:53:59;5.87;;;5.27;;
15679;SDS011;15488;48.114;11.532;2023-06-26T06:56:27;5.90;;;5.30;;
15679;SDS011;15488;48.114;11.532;2023-06-26T06:58:54;8.00;;;5.77;;
15679;SDS011;15488;48.114;11.532;2023-06-26T07:01:22;5.73;;;5.23;;
15679;SDS011;15488;48.114;11.532;2023-06-26T07:03:49;11.77;;;6.00;;
15679;SDS011;15488;48.114;11.532;2023-06-26T07:06:16;5.73;;;5.23;;
15679;SDS011;15488;48.114;11.532;2023-06-26T07:08:45;6.40;;;5.80;;
15679;SDS011;15488;48.114;11.532;2023-06-26T07:11:13;6.10;;;5.50;;
15679;SDS011;15488;48.114;11.532;2023-06-26T07:13:40;6.33;;;5.73;;
15679;SDS011;15488;48.114;11.532;2023-06-26T07:16:07;6.70;;;6.03;;
15679;SDS011;15488;48.114;11.532;2023-06-26T07:18:37;6.40;;;5.80;;
15679;SDS011;15488;48.114;11.532;2023-06-26T07:21:04;6.57;;;5.97;;
15679;SDS011;15488;48.114;11.532;2023-06-26T07:23:31;6.00;;;5.40;;
15679;SDS011;15488;48.114;11.532;2023-06-26T07:26:00;6.40;;;5.80;;
15679;SDS011;15488;48.114;11.532;2023-06-26T07:28:28;6.50;;;5.80;;
15679;SDS011;15488;48.114;11.532;2023-06-26T07:30:55;6.97;;;6.00;;
15679;SDS011;15488;48.114;11.532;2023-06-26T07:33:22;6.78;;;5.80;;
15679;SDS011;15488;48.114;11.532;2023-06-26T07:35:50;7.07;;;6.07;;
15679;SDS011;15488;48.114;11.532;2023-06-26T07:38:17;6.32;;;5.72;;
15679;SDS011;15488;48.114;11.532;2023-06-26T07:40:45;7.05;;;6.00;;
15679;SDS011;15488;48.114;11.532;2023-06-26T07:43:13;6.45;;;5.80;;
15679;SDS011;15488;48.114;11.532;2023-06-26T07:45:41;9.35;;;6.13;;
15679;SDS011;15488;48.114;11.532;2023-06-26T07:48:08;6.50;;;5.87;;
15679;SDS011;15488;48.114;11.532;2023-06-26T07:50:36;6.40;;;5.80;;
15679;SDS011;15488;48.114;11.532;2023-06-26T07:53:03;6.95;;;5.90;;
15679;SDS011;15488;48.114;11.532;2023-06-26T07:55:31;6.82;;;6.18;;
15679;SDS011;15488;48.114;11.532;2023-06-26T07:57:58;6.63;;;5.85;;
15679;SDS011;15488;48.114;11.532;2023-06-26T08:00:27;6.57;;;5.97;;
15679;SDS011;15488;48.114;11.532;2023-06-26T08:02:55;6.13;;;5.53;;
15679;SDS011;15488;48.114;11.532;2023-06-26T08:05:22;6.40;;;5.80;;
15679;SDS011;15488;48.114;11.532;2023-06-26T08:07:50;6.10;;;5.50;;
15679;SDS011;15488;48.114;11.532;2023-06-26T08:10:17;7.65;;;6.57;;
15679;SDS011;15488;48.114;11.532;2023-06-26T08:12:44;6.45;;;5.93;;
15679;SDS011;15488;48.114;11.532;2023-06-26T08:15:13;7.63;;;5.82;;
15679;SDS011;15488;48.114;11.532;2023-06-26T08:17:42;6.25;;;5.65;;
15679;SDS011;15488;48.114;11.532;2023-06-26T08:20:10;7.10;;;6.40;;
15679;SDS011;15488;48.114;11.532;2023-06-26T08:22:38;10.27;;;6.95;;
15679;SDS011;15488;48.114;11.532;2023-06-26T08:25:06;7.53;;;6.25;;
15679;SDS011;15488;48.114;11.532;2023-06-26T08:27:34;7.03;;;6.20;;
15679;SDS011;15488;48.114;11.532;2023-06-26T08:30:01;6.47;;;5.78;;
15679;SDS011;15488;48.114;11.532;2023-06-26T08:32:30;7.00;;;6.38;;
15679;SDS011;15488;48.114;11.532;2023-06-26T08:34:59;6.78;;;5.72;;
15679;SDS011;15488;48.114;11.532;2023-06-26T08:37:26;6.57;;;5.97;;
15679;SDS011;15488;48.114;11.532;2023-06-26T08:39:54;6.43;;;5.80;;
15679;SDS011;15488;48.114;11.532;2023-06-26T08:42:21;6.43;;;5.75;;
15679;SDS011;15488;48.114;11.532;2023-06-26T08:44:49;7.65;;;6.88;;
15679;SDS011;15488;48.114;11.532;2023-06-26T08:47:17;8.32;;;6.95;;
15679;SDS011;15488;48.114;11.532;2023-06-26T08:49:47;6.68;;;5.85;;
15679;SDS011;15488;48.114;11.532;2023-06-26T08:52:22;7.15;;;5.97;;
15679;SDS011;15488;48.114;11.532;2023-06-26T08:54:52;6.85;;;6.20;;
15679;SDS011;15488;48.114;11.532;2023-06-26T08:57:23;6.28;;;5.47;;
15679;SDS011;15488;48.114;11.532;2023-06-26T08:59:52;5.82;;;4.88;;
15679;SDS011;15488;48.114;11.532;2023-06-26T09:02:20;5.88;;;5.28;;
15679;SDS011;15488;48.114;11.532;2023-06-26T09:04:48;5.70;;;5.20;;
15679;SDS011;15488;48.114;11.532;2023-06-26T09:07:16;7.18;;;6.47;;
15679;SDS011;15488;48.114;11.532;2023-06-26T09:09:45;6.40;;;5.80;;
15679;SDS011;15488;48.114;11.532;2023-06-26T09:12:12;6.90;;;5.50;;
15679;SDS011;15488;48.114;11.532;2023-06-26T09:14:40;6.07;;;5.47;;
15679;SDS011;15488;48.114;11.532;2023-06-26T09:17:08;6.72;;;5.53;;
15679;SDS011;15488;48.114;11.532;2023-06-26T09:19:36;6.65;;;6.05;;
15679;SDS011;15488;48.114;11.532;2023-06-26T09:22:04;7.05;;;6.35;;
15679;SDS011;15488;48.114;11.532;2023-06-26T09:24:40;6.00;;;5.40;;
15679;SDS011;15488;48.114;11.532;2023-06-26T09:27:09;6.00;;;5.50;;
15679;SDS011;15488;48.114;11.532;2023-06-26T09:29:37;5.60;;;5.10;;
15679;SDS011;15488;48.114;11.532;2023-06-26T09:32:07;5.75;;;5.25;;
15679;SDS011;15488;48.114;11.532;2023-06-26T09:34:35;5.63;;;4.88;;
15679;SDS011;15488;48.114;11.532;2023-06-26T09:37:02;5.40;;;4.90;;
15679;SDS011;15488;48.114;11.532;2023-06-26T09:39:30;5.50;;;5.00;;
15679;SDS011;15488;48.114;11.532;2023-06-26T09:41:58;5.93;;;5.32;;
15679;SDS011;15488;48.114;11.532;2023-06-26T09:44:28;6.25;;;4.80;;
15679;SDS011;15488;48.114;11.532;2023-06-26T09:46:57;5.28;;;4.88;;
15679;SDS011;15488;48.114;11.532;2023-06-26T09:49:25;5.65;;;5.15;;
15679;SDS011;15488;48.114;11.532;2023-06-26T09:51:52;5.88;;;5.38;;
15679;SDS011;15488;48.114;11.532;2023-06-26T09:54:23;5.45;;;4.95;;
15679;SDS011;15488;48.114;11.532;2023-06-26T09:56:55;5.35;;;4.93;;
15679;SDS011;15488;48.114;11.532;2023-06-26T09:59:34;5.30;;;4.80;;
15679;SDS011;15488;48.114;11.532;2023-06-26T10:02:03;5.30;;;4.80;;
15679;SDS011;15488;48.114;11.532;2023-06-26T10:04:31;5.18;;;4.68;;
15679;SDS011;15488;48.114;11.532;2023-06-26T10:06:58;4.88;;;4.43;;
15679;SDS011;15488;48.114;11.532;2023-06-26T10:09:30;4.90;;;4.50;;
15679;SDS011;15488;48.114;11.532;2023-06-26T10:12:00;4.95;;;4.55;;
15679;SDS011;15488;48.114;11.532;2023-06-26T10:14:31;5.07;;;4.57;;
15679;SDS011;15488;48.114;11.532;2023-06-26T10:17:03;4.93;;;4.40;;
15679;SDS011;15488;48.114;11.532;2023-06-26T10:19:33;4.47;;;4.18;;
15679;SDS011;15488;48.114;11.532;2023-06-26T10:22:04;5.90;;;4.90;;
15679;SDS011;15488;48.114;11.532;2023-06-26T10:24:32;4.70;;;4.30;;
15679;SDS011;15488;48.114;11.532;2023-06-26T10:27:02;5.05;;;4.55;;
15679;SDS011;15488;48.114;11.532;2023-06-26T10:29:38;4.80;;;4.40;;
15679;SDS011;15488;48.114;11.532;2023-06-26T10:32:06;5.22;;;4.82;;
15679;SDS011;15488;48.114;11.532;2023-06-26T10:34:36;4.80;;;4.40;;
15679;SDS011;15488;48.114;11.532;2023-06-26T10:37:04;5.40;;;4.90;;
15679;SDS011;15488;48.114;11.532;2023-06-26T10:39:38;5.25;;;4.75;;
15679;SDS011;15488;48.114;11.532;2023-06-26T10:42:14;5.32;;;4.82;;
15679;SDS011;15488;48.114;11.532;2023-06-26T10:44:45;5.60;;;5.10;;
15679;SDS011;15488;48.114;11.532;2023-06-26T10:47:28;5.30;;;4.90;;
15679;SDS011;15488;48.114;11.532;2023-06-26T10:49:56;5.00;;;4.60;;
15679;SDS011;15488;48.114;11.532;2023-06-26T10:52:39;4.78;;;4.38;;
15679;SDS011;15488;48.114;11.532;2023-06-26T10:55:07;5.22;;;4.75;;
15679;SDS011;15488;48.114;11.532;2023-06-26T10:57:35;5.05;;;4.65;;
15679;SDS011;15488;48.114;11.532;2023-06-26T11:00:11;5.55;;;4.95;;
15679;SDS011;15488;48.114;11.532;2023-06-26T11:02:47;5.20;;;4.70;;
15679;SDS011;15488;48.114;11.532;2023-06-26T11:05:23;5.38;;;4.88;;
15679;SDS011;15488;48.114;11.532;2023-06-26T11:08:04;5.60;;;5.10;;
15679;SDS011;15488;48.114;11.532;2023-06-26T11:10:49;5.22;;;4.72;;
15679;SDS011;15488;48.114;11.532;2023-06-26T11:13:18;5.25;;;4.82;;
15679;SDS011;15488;48.114;11.532;2023-06-26T11:15:47;5.50;;;5.00;;
15679;SDS011;15488;48.114;11.532;2023-06-26T11:18:16;5.60;;;5.10;;
15679;SDS011;15488;48.114;11.532;2023-06-26T11:20:45;5.35;;;4.85;;
15679;SDS011;15488;48.114;11.532;2023-06-26T11:23:12;5.50;;;4.90;;
15679;SDS011;15488;48.114;11.532;2023-06-26T11:25:45;5.25;;;4.75;;
15679;SDS011;15488;48.114;11.532;2023-06-26T11:28:13;5.30;;;4.80;;
15679;SDS011;15488;48.114;11.532;2023-06-26T11:30:40;5.07;;;4.68;;
15679;SDS011;15488;48.114;11.532;2023-06-26T11:33:09;5.97;;;5.32;;
15679;SDS011;15488;48.114;11.532;2023-06-26T11:35:37;5.50;;;5.00;;
15679;SDS011;15488;48.114;11.532;2023-06-26T11:38:06;5.53;;;5.03;;
15679;SDS011;15488;48.114;11.532;2023-06-26T11:40:35;5.75;;;5.25;;
15679;SDS011;15488;48.114;11.532;2023-06-26T11:43:03;5.80;;;5.30;;
15679;SDS011;15488;48.114;11.532;2023-06-26T11:45:31;5.80;;;5.30;;
15679;SDS011;15488;48.114;11.532;2023-06-26T11:47:59;6.13;;;5.57;;
15679;SDS011;15488;48.114;11.532;2023-06-26T11:50:28;5.85;;;5.35;;
15679;SDS011;15488;48.114;11.532;2023-06-26T11:52:56;6.28;;;5.70;;
15679;SDS011;15488;48.114;11.532;2023-06-26T11:55:27;6.15;;;5.68;;
15679;SDS011;15488;48.114;11.532;2023-06-26T11:58:06;5.93;;;5.43;;
15679;SDS011;15488;48.114;11.532;2023-06-26T12:00:34;6.53;;;5.93;;
15679;SDS011;15488;48.114;11.532;2023-06-26T12:03:01;6.25;;;5.75;;
15679;SDS011;15488;48.114;11.532;2023-06-26T12:05:30;5.78;;;5.28;;
15679;SDS011;15488;48.114;11.532;2023-06-26T12:07:58;6.03;;;5.53;;
15679;SDS011;15488;48.114;11.532;2023-06-26T12:10:27;5.80;;;5.30;;
15679;SDS011;15488;48.114;11.532;2023-06-26T12:12:54;6.32;;;5.82;;
15679;SDS011;15488;48.114;11.532;2023-06-26T12:15:24;6.70;;;6.20;;
15679;SDS011;15488;48.114;11.532;2023-06-26T12:17:51;5.90;;;5.40;;
15679;SDS011;15488;48.114;11.532;2023-06-26T12:20:19;6.30;;;5.80;;
15679;SDS011;15488;48.114;11.532;2023-06-26T12:22:49;5.95;;;5.45;;
15679;SDS011;15488;48.114;11.532;2023-06-26T12:25:22;6.30;;;5.70;;
15679;SDS011;15488;48.114;11.532;2023-06-26T12:27:49;5.93;;;5.43;;
15679;SDS011;15488;48.114;11.532;2023-06-26T12:30:17;6.70;;;6.10;;
15679;SDS011;15488;48.114;11.532;2023-06-26T12:32:44;6.90;;;6.15;;
15679;SDS011;15488;48.114;11.532;2023-06-26T12:35:12;6.65;;;6.03;;
15679;SDS011;15488;48.114;11.532;2023-06-26T12:37:41;6.60;;;6.00;;
15679;SDS011;15488;48.114;11.532;2023-06-26T12:40:18;6.63;;;6.10;;
15679;SDS011;15488;48.114;11.532;2023-06-26T12:42:48;6.55;;;6.05;;
15679;SDS011;15488;48.114;11.532;2023-06-26T12:45:15;6.78;;;6.18;;
15679;SDS011;15488;48.114;11.532;2023-06-26T12:47:43;6.43;;;5.93;;
15679;SDS011;15488;48.114;11.532;2023-06-26T12:50:11;6.32;;;5.82;;
15679;SDS011;15488;48.114;11.532;2023-06-26T12:52:39;6.70;;;6.18;;
15679;SDS011;15488;48.114;11.532;2023-06-26T12:55:06;6.88;;;6.22;;
15679;SDS011;15488;48.114;11.532;2023-06-26T12:57:37;7.22;;;6.60;;
15679;SDS011;15488;48.114;11.532;2023-06-26T13:00:05;6.70;;;6.20;;
15679;SDS011;15488;48.114;11.532;2023-06-26T13:02:35;6.78;;;6.18;;
15679;SDS011;15488;48.114;11.532;2023-06-26T13:05:02;7.00;;;6.18;;
15679;SDS011;15488;48.114;11.532;2023-06-26T13:07:30;7.78;;;6.35;;
15679;SDS011;15488;48.114;11.532;2023-06-26T13:09:58;6.60;;;5.72;;
15679;SDS011;15488;48.114;11.532;2023-06-26T13:12:25;7.00;;;6.40;;
15679;SDS011;15488;48.114;11.532;2023-06-26T13:14:54;8.30;;;7.60;;
15679;SDS011;15488;48.114;11.532;2023-06-26T13:17:21;6.72;;;5.80;;
15679;SDS011;15488;48.114;11.532;2023-06-26T13:19:49;7.05;;;6.45;;
15679;SDS011;15488;48.114;11.532;2023-06-26T13:22:16;6.65;;;6.13;;
15679;SDS011;15488;48.114;11.532;2023-06-26T13:24:43;6.53;;;5.93;;
15679;SDS011;15488;48.114;11.532;2023-06-26T13:27:11;7.05;;;6.47;;
15679;SDS011;15488;48.114;11.532;2023-06-26T13:29:38;7.28;;;6.65;;
15679;SDS011;15488;48.114;11.532;2023-06-26T13:32:08;9.82;;;8.98;;
15679;SDS011;15488;48.114;11.532;2023-06-26T13:34:35;7.50;;;6.90;;
15679;SDS011;15488;48.114;11.532;2023-06-26T13:37:03;6.57;;;5.97;;
15679;SDS011;15488;48.114;11.532;2023-06-26T13:39:31;7.70;;;7.10;;
15679;SDS011;15488;48.114;11.532;2023-06-26T13:41:59;6.93;;;6.43;;
15679;SDS011;15488;48.114;11.532;2023-06-26T13:44:26;7.20;;;6.60;;
15679;SDS011;15488;48.114;11.532;2023-06-26T13:46:53;6.93;;;6.43;;
15679;SDS011;15488;48.114;11.532;2023-06-26T13:49:22;7.03;;;6.30;;
15679;SDS011;15488;48.114;11.532;2023-06-26T13:51:50;6.97;;;6.40;;
15679;SDS011;15488;48.114;11.532;2023-06-26T13:54:17;7.35;;;6.75;;
15679;SDS011;15488;48.114;11.532;2023-06-26T13:56:45;8.00;;;7.20;;
15679;SDS011;15488;48.114;11.532;2023-06-26T13:59:12;7.18;;;6.57;;
15679;SDS011;15488;48.114;11.532;2023-06-26T14:01:40;9.98;;;9.18;;
15679;SDS011;15488;48.114;11.532;2023-06-26T14:04:09;9.40;;;8.75;;
15679;SDS011;15488;48.114;11.532;2023-06-26T14:06:37;9.43;;;8.68;;
15679;SDS011;15488;48.114;11.532;2023-06-26T14:09:05;9.80;;;9.10;;
15679;SDS011;15488;48.114;11.532;2023-06-26T14:11:33;9.60;;;9.00;;
15679;SDS011;15488;48.114;11.532;2023-06-26T14:14:01;9.48;;;8.88;;
15679;SDS011;15488;48.114;11.532;2023-06-26T14:16:28;10.20;;;9.50;;
15679;SDS011;15488;48.114;11.532;2023-06-26T14:18:56;11.32;;;10.63;;
15679;SDS011;15488;48.114;11.532;2023-06-26T14:21:24;10.73;;;10.02;;
15679;SDS011;15488;48.114;11.532;2023-06-26T14:23:54;10.77;;;10.07;;
15679;SDS011;15488;48.114;11.532;2023-06-26T14:26:21;9.90;;;9.30;;
15679;SDS011;15488;48.114;11.532;2023-06-26T14:28:49;8.82;;;8.32;;
15679;SDS011;15488;48.114;11.532;2023-06-26T14:31:16;7.93;;;7.38;;
15679;SDS011;15488;48.114;11.532;2023-06-26T14:33:44;9.50;;;8.75;;
15679;SDS011;15488;48.114;11.532;2023-06-26T14:36:11;8.07;;;7.53;;
15679;SDS011;15488;48.114;11.532;2023-06-26T14:38:39;8.95;;;8.32;;
15679;SDS011;15488;48.114;11.532;2023-06-26T14:41:08;8.82;;;8.23;;
15679;SDS011;15488;48.114;11.532;2023-06-26T14:43:35;9.23;;;8.63;;